createdAt,value
2022-09-28T00:00:27.614Z,9.10
2022-09-28T00:05:31.826Z,9.09
2022-09-28T00:10:34.513Z,9.07
2022-09-28T00:15:37.176Z,9.07
2022-09-28T00:20:39.772Z,9.01
2022-09-28T00:25:42.364Z,8.94
2022-09-28T00:30:44.953Z,8.91
2022-09-28T00:35:47.584Z,8.88
2022-09-28T00:40:50.332Z,8.83
2022-09-28T00:46:04.384Z,8.78
2022-09-28T00:51:10.734Z,8.72
2022-09-28T00:56:19.145Z,8.68
2022-09-28T01:01:22.042Z,8.64
2022-09-28T01:06:28.190Z,8.61
2022-09-28T01:11:33.216Z,8.50
2022-09-28T01:16:44.439Z,8.47
2022-09-28T01:22:07.926Z,8.50
2022-09-28T01:27:28.154Z,8.55
2022-09-28T01:32:41.925Z,8.57
2022-09-28T01:37:52.203Z,8.62
2022-09-28T01:42:59.412Z,8.65
2022-09-28T01:48:06.409Z,8.67
2022-09-28T01:53:15.834Z,8.65
2022-09-28T01:58:33.128Z,8.64
2022-09-28T02:03:40.951Z,8.60
2022-09-28T02:08:51.713Z,8.58
2022-09-28T02:14:03.133Z,8.62
2022-09-28T02:19:07.244Z,8.65
2022-09-28T02:24:20.611Z,8.67
2022-09-28T02:29:24.460Z,8.69
2022-09-28T02:34:27.045Z,8.70
2022-09-28T02:39:29.761Z,8.74
2022-09-28T02:44:43.524Z,8.77
2022-09-28T02:50:07.673Z,8.81
2022-09-28T02:55:18.632Z,8.85
2022-09-28T03:00:23.142Z,8.88
2022-09-28T03:05:29.044Z,8.94
2022-09-28T03:10:49.852Z,8.96
2022-09-28T03:15:52.469Z,8.97
2022-09-28T03:20:55.205Z,8.98
2022-09-28T03:25:57.890Z,8.99
2022-09-28T03:31:00.511Z,9.00
2022-09-28T03:36:03.109Z,8.96
2022-09-28T03:41:05.843Z,8.93
2022-09-28T03:46:09.158Z,8.90
2022-09-28T03:51:12.587Z,8.92
2022-09-28T03:56:15.634Z,8.90
2022-09-28T04:01:18.502Z,8.89
2022-09-28T04:06:21.285Z,8.88
2022-09-28T04:11:24.318Z,8.85
2022-09-28T04:16:27.406Z,8.80
2022-09-28T04:21:30.287Z,8.78
2022-09-28T04:26:32.987Z,8.73
2022-09-28T04:31:50.245Z,8.69
2022-09-28T04:36:52.891Z,8.57
2022-09-28T04:41:55.511Z,8.49
2022-09-28T04:47:00.689Z,8.48
2022-09-28T04:52:07.257Z,8.45
2022-09-28T04:57:10.326Z,8.45
2022-09-28T05:02:15.350Z,8.45
2022-09-28T05:07:18.271Z,8.41
2022-09-28T05:12:21.524Z,8.33
2022-09-28T05:17:24.162Z,8.27
2022-09-28T05:22:26.810Z,8.26
2022-09-28T05:27:29.422Z,8.25
2022-09-28T05:32:32.100Z,8.28
2022-09-28T05:37:36.579Z,8.36
2022-09-28T05:42:39.836Z,8.42
2022-09-28T05:47:43.618Z,8.50
2022-09-28T05:52:46.889Z,8.61
2022-09-28T05:57:49.477Z,8.73
2022-09-28T06:03:06.747Z,8.83
2022-09-28T06:08:11.733Z,8.95
2022-09-28T06:13:14.438Z,9.10
2022-09-28T06:18:17.123Z,9.23
2022-09-28T06:23:19.804Z,9.43
2022-09-28T06:28:22.385Z,9.61
2022-09-28T06:33:26.696Z,9.80
2022-09-28T06:38:29.420Z,9.99
2022-09-28T06:43:34.565Z,10.15
2022-09-28T06:48:38.291Z,10.33
2022-09-28T06:53:40.865Z,10.55
2022-09-28T06:58:43.604Z,10.74
2022-09-28T07:03:46.826Z,10.90
2022-09-28T07:08:57.263Z,11.07
2022-09-28T07:14:25.220Z,11.30
2022-09-28T07:19:36.532Z,11.47
2022-09-28T07:24:39.885Z,11.60
2022-09-28T07:29:42.603Z,11.75
2022-09-28T07:34:45.251Z,11.92
2022-09-28T07:40:06.230Z,12.07
2022-09-28T07:45:09.232Z,12.27
2022-09-28T07:50:12.219Z,12.45
2022-09-28T07:55:15.253Z,12.60
2022-09-28T08:00:17.972Z,12.71
2022-09-28T08:05:20.701Z,12.79
2022-09-28T08:10:23.503Z,12.97
2022-09-28T08:15:26.119Z,13.10
2022-09-28T08:20:51.320Z,13.24
2022-09-28T08:25:54.707Z,13.45
2022-09-28T08:31:01.059Z,13.60
2022-09-28T08:36:07.000Z,13.82
2022-09-28T08:41:35.287Z,14.13
2022-09-28T08:46:46.030Z,14.36
2022-09-28T08:52:03.372Z,14.52
2022-09-28T08:57:10.446Z,14.69
2022-09-28T09:02:22.892Z,14.85
2022-09-28T09:07:44.715Z,14.99
2022-09-28T09:12:50.252Z,15.05
2022-09-28T09:18:37.489Z,15.26
2022-09-28T09:23:55.214Z,15.53
2022-09-28T09:29:07.843Z,15.60
2022-09-28T09:34:34.380Z,15.68
2022-09-28T09:39:39.612Z,16.35
2022-09-28T09:45:18.487Z,16.76
2022-09-28T09:50:30.742Z,16.81
2022-09-28T09:55:46.477Z,16.29
2022-09-28T10:00:52.637Z,15.76
2022-09-28T10:06:03.894Z,15.37
2022-09-28T10:11:45.567Z,15.06
2022-09-28T10:16:50.458Z,14.91
2022-09-28T10:21:53.305Z,15.00
2022-09-28T10:26:58.948Z,14.97
2022-09-28T10:32:02.924Z,14.88
2022-09-28T10:37:09.561Z,14.89
2022-09-28T10:42:17.945Z,15.00
2022-09-28T10:47:23.148Z,15.31
2022-09-28T10:52:42.694Z,15.41
2022-09-28T10:57:45.322Z,15.40
2022-09-28T11:02:48.066Z,15.36
2022-09-28T11:07:52.721Z,15.61
2022-09-28T11:12:55.815Z,16.04
2022-09-28T11:18:26.417Z,16.49
2022-09-28T11:23:31.128Z,16.94
2022-09-28T11:28:38.336Z,17.10
2022-09-28T11:33:46.793Z,17.04
2022-09-28T11:39:09.185Z,17.15
2022-09-28T11:44:44.606Z,17.34
2022-09-28T11:49:48.605Z,17.72
2022-09-28T11:54:56.284Z,18.00
2022-09-28T12:00:03.211Z,18.02
2022-09-28T12:05:20.652Z,18.09
2022-09-28T12:10:56.827Z,18.06
2022-09-28T12:21:36.928Z,17.33
2022-09-28T12:26:46.606Z,17.09
2022-09-28T12:32:13.014Z,16.95
2022-09-28T12:37:24.329Z,16.94
2022-09-28T12:42:57.296Z,16.93
2022-09-28T12:48:36.257Z,16.76
2022-09-28T12:53:57.717Z,16.33
2022-09-28T12:59:01.151Z,16.06
2022-09-28T13:04:45.145Z,15.94
2022-09-28T13:09:55.566Z,15.90
2022-09-28T13:15:21.810Z,15.85
2022-09-28T13:20:42.889Z,15.86
2022-09-28T13:25:57.065Z,15.84
2022-09-28T13:31:00.767Z,15.74
2022-09-28T13:36:24.716Z,15.69
2022-09-28T13:41:38.033Z,15.69
2022-09-28T13:47:25.704Z,15.69
2022-09-28T13:52:57.289Z,15.82
2022-09-28T13:58:24.535Z,15.90
2022-09-28T14:03:45.315Z,15.93
2022-09-28T14:09:14.101Z,15.90
2022-09-28T14:14:16.786Z,15.97
2022-09-28T14:19:20.747Z,15.98
2022-09-28T14:25:01.371Z,15.95
2022-09-28T14:30:07.954Z,15.87
2022-09-28T14:35:18.929Z,15.75
2022-09-28T14:41:10.190Z,15.63
2022-09-28T14:46:14.722Z,15.52
2022-09-28T14:51:37.955Z,15.48
2022-09-28T14:57:08.215Z,15.44
2022-09-28T15:02:10.806Z,15.40
2022-09-28T15:07:47.940Z,15.38
2022-09-28T15:12:53.453Z,15.34
2022-09-28T15:18:16.733Z,15.30
2022-09-28T15:23:34.721Z,15.26
2022-09-28T15:28:44.929Z,15.26
2022-09-28T15:34:06.538Z,15.29
2022-09-28T15:39:18.742Z,15.27
2022-09-28T15:44:34.289Z,15.24
2022-09-28T15:49:46.059Z,15.18
2022-09-28T15:54:49.096Z,15.13
2022-09-28T15:59:56.954Z,15.08
2022-09-28T16:05:05.626Z,15.03
2022-09-28T16:10:11.580Z,14.95
2022-09-28T16:15:27.406Z,14.88
2022-09-28T16:20:34.231Z,14.80
2022-09-28T16:25:39.449Z,14.71
2022-09-28T16:30:59.612Z,14.65
2022-09-28T16:36:03.341Z,14.58
2022-09-28T16:41:09.155Z,14.52
2022-09-28T16:46:15.734Z,14.50
2022-09-28T16:51:20.656Z,14.45
2022-09-28T16:56:23.308Z,14.40
2022-09-28T17:01:26.070Z,14.39
2022-09-28T17:06:28.874Z,14.33
2022-09-28T17:11:31.498Z,14.31
2022-09-28T17:17:07.794Z,14.27
2022-09-28T17:21:58.780Z,14.26
2022-09-28T17:27:03.258Z,14.25
2022-09-28T17:32:16.977Z,14.21
2022-09-28T17:37:19.690Z,14.19
2022-09-28T17:42:22.574Z,14.19
2022-09-28T17:47:25.169Z,14.20
2022-09-28T17:52:27.869Z,14.19
2022-09-28T17:57:30.545Z,14.18
2022-09-28T18:02:33.829Z,14.14
2022-09-28T18:07:38.222Z,14.09
2022-09-28T18:12:41.267Z,14.00
2022-09-28T18:17:44.301Z,13.86
2022-09-28T18:22:47.057Z,13.74
2022-09-28T18:27:49.755Z,13.59
2022-09-28T18:32:52.700Z,13.45
2022-09-28T18:37:55.579Z,13.32
2022-09-28T18:42:58.410Z,13.20
2022-09-28T18:48:01.372Z,13.08
2022-09-28T18:53:13.254Z,13.00
2022-09-28T18:58:15.963Z,12.89
2022-09-28T19:03:18.926Z,12.80
2022-09-28T19:08:25.513Z,12.72
2022-09-28T19:13:30.275Z,12.64
2022-09-28T19:18:33.943Z,12.55
2022-09-28T19:23:37.151Z,12.49
2022-09-28T19:28:40.023Z,12.45
2022-09-28T19:33:42.713Z,12.40
2022-09-28T19:38:45.703Z,12.38
2022-09-28T19:43:48.461Z,12.37
2022-09-28T19:48:51.128Z,12.33
2022-09-28T19:53:53.680Z,12.33
2022-09-28T19:58:57.064Z,12.30
2022-09-28T20:04:00.381Z,12.28
2022-09-28T20:09:03.552Z,12.26
2022-09-28T20:14:10.631Z,12.25
2022-09-28T20:19:13.523Z,12.24
2022-09-28T20:24:17.266Z,12.22
2022-09-28T20:29:20.422Z,12.20
2022-09-28T20:34:23.020Z,12.20
2022-09-28T20:39:25.686Z,12.18
2022-09-28T20:44:28.413Z,12.19
2022-09-28T20:49:32.061Z,12.18
2022-09-28T20:54:34.641Z,12.17
2022-09-28T20:59:37.440Z,12.15
2022-09-28T21:04:41.377Z,12.14
2022-09-28T21:09:43.953Z,12.10
2022-09-28T21:14:46.800Z,12.10
2022-09-28T21:19:50.018Z,12.05
2022-09-28T21:24:52.608Z,12.07
2022-09-28T21:29:55.195Z,12.05
2022-09-28T21:34:58.344Z,12.03
2022-09-28T21:40:02.548Z,12.00
2022-09-28T21:45:05.661Z,11.99
2022-09-28T21:50:08.710Z,11.94
2022-09-28T21:55:11.344Z,11.93
2022-09-28T22:00:16.425Z,11.90
2022-09-28T22:05:19.293Z,11.87
2022-09-28T22:10:21.934Z,11.85
2022-09-28T22:15:24.586Z,11.82
2022-09-28T22:20:27.648Z,11.83
2022-09-28T22:25:30.274Z,11.84
2022-09-28T22:30:34.488Z,11.81
2022-09-28T22:35:37.079Z,11.78
2022-09-28T22:40:47.184Z,11.75
2022-09-28T22:45:50.369Z,11.74
2022-09-28T22:50:53.099Z,11.70
2022-09-28T22:55:56.720Z,11.69
2022-09-28T23:01:29.795Z,11.64
2022-09-28T23:06:33.236Z,11.63
2022-09-28T23:11:35.825Z,11.65
2022-09-28T23:16:38.373Z,11.63
2022-09-28T23:21:41.502Z,11.61
2022-09-28T23:26:44.127Z,11.62
2022-09-28T23:31:46.785Z,11.61
2022-09-28T23:36:52.044Z,11.59
2022-09-28T23:41:54.612Z,11.57
2022-09-28T23:46:57.906Z,11.55
2022-09-28T23:52:01.180Z,11.52
2022-09-28T23:57:03.812Z,11.56
